Time;durP1;ratioP1;P1;durP2;ratioP2;P2;SDS_P1;SDS_P2;PMS_P1;PMS_P2;Temp;Humidity;BMP_temperature;BMP_pressure;BME280_temperature;BME280_humidity;BME280_pressure;Samples;Min_cycle;Max_cycle;Signal;HPM_P1;HPM_P2
2022/05/25 00:01:00;;;;;;;16.42;14.85;;;9.90;99.90;;;;;;5075421;28;20045;-53
2022/05/25 00:03:27;;;;;;;16.35;14.70;;;10.00;99.90;;;;;;5050007;28;20127;-50
2022/05/25 00:05:55;;;;;;;17.02;15.32;;;9.90;99.90;;;;;;5053208;28;20032;-49
2022/05/25 00:08:21;;;;;;;15.48;13.98;;;9.90;99.90;;;;;;5068755;28;20779;-51
2022/05/25 00:10:47;;;;;;;15.70;14.10;;;9.90;99.90;;;;;;5078216;28;20048;-54
2022/05/25 00:13:13;;;;;;;16.38;14.77;;;9.80;99.90;;;;;;5049226;28;20433;-50
2022/05/25 00:15:40;;;;;;;14.43;12.85;;;9.90;99.90;;;;;;5045667;28;20139;-52
2022/05/25 00:18:06;;;;;;;15.75;14.25;;;9.90;99.90;;;;;;5086304;28;20048;-53
2022/05/25 00:20:33;;;;;;;15.50;14.00;;;9.90;99.90;;;;;;5049565;28;20078;-49
2022/05/25 00:22:59;;;;;;;14.52;13.05;;;9.90;99.90;;;;;;5040021;28;20090;-54
2022/05/25 00:25:30;;;;;;;14.93;13.50;;;9.80;99.90;;;;;;5048925;28;20061;-55
2022/05/25 00:27:57;;;;;;;14.90;13.57;;;9.80;99.90;;;;;;5048908;28;20091;-51
2022/05/25 00:30:25;;;;;;;14.18;12.75;;;9.80;99.90;;;;;;5052080;28;20065;-50
2022/05/25 00:32:52;;;;;;;14.30;12.88;;;9.80;99.90;;;;;;5057901;28;20172;-54
2022/05/25 00:35:20;;;;;;;13.95;12.60;;;9.80;99.90;;;;;;5058001;28;21116;-52
2022/05/25 00:37:47;;;;;;;13.52;12.27;;;9.70;99.90;;;;;;5062766;28;20049;-51
2022/05/25 00:40:20;;;;;;;14.95;12.02;;;9.70;99.90;;;;;;5047984;28;20522;-55
2022/05/25 00:42:47;;;;;;;12.73;11.43;;;9.70;99.90;;;;;;5058507;28;20071;-55
2022/05/25 00:45:14;;;;;;;12.77;11.40;;;9.70;99.90;;;;;;5057207;28;21090;-53
2022/05/25 00:47:44;;;;;;;12.90;11.63;;;9.70;99.90;;;;;;5067125;28;20304;-52
2022/05/25 00:50:13;;;;;;;11.98;10.77;;;9.70;99.90;;;;;;5072569;28;20049;-54
2022/05/25 00:52:42;;;;;;;12.18;10.93;;;9.70;99.90;;;;;;5062499;28;20044;-52
2022/05/25 00:55:11;;;;;;;11.52;10.40;;;9.60;99.90;;;;;;5055105;28;20061;-51
2022/05/25 00:57:41;;;;;;;10.98;9.88;;;9.70;99.90;;;;;;5062833;28;20059;-55
2022/05/25 01:00:20;;;;;;;12.23;10.38;;;9.70;99.90;;;;;;5047005;28;20634;-50
2022/05/25 01:02:53;;;;;;;9.65;8.73;;;9.60;99.90;;;;;;5055852;28;20060;-52
2022/05/25 01:05:26;;;;;;;11.80;9.95;;;9.60;99.90;;;;;;5054734;28;20043;-52
2022/05/25 01:08:13;;;;;;;11.15;10.05;;;9.60;99.90;;;;;;5049366;28;20143;-55
2022/05/25 01:10:55;;;;;;;11.82;10.65;;;9.50;99.90;;;;;;5053749;28;20142;-55
2022/05/25 01:13:57;;;;;;;11.50;10.07;;;9.50;99.90;;;;;;5056532;28;20456;-53
2022/05/25 01:16:48;;;;;;;11.85;10.63;;;9.50;99.90;;;;;;5047225;28;20315;-51
2022/05/25 01:19:42;;;;;;;11.60;10.30;;;9.40;99.90;;;;;;5057048;28;20062;-53
2022/05/25 01:22:50;;;;;;;11.60;10.40;;;9.40;99.90;;;;;;5056324;28;20044;-51
2022/05/25 01:25:40;;;;;;;11.95;10.73;;;9.40;99.90;;;;;;5058197;28;20139;-53
2022/05/25 01:28:12;;;;;;;11.85;10.60;;;9.30;99.90;;;;;;5054583;28;20052;-53
2022/05/25 01:30:41;;;;;;;13.15;10.52;;;9.30;99.90;;;;;;5062562;28;20898;-54
2022/05/25 01:33:16;;;;;;;12.90;11.65;;;9.20;99.90;;;;;;5054699;28;20053;-53
2022/05/25 01:35:51;;;;;;;12.68;11.48;;;9.20;99.90;;;;;;5044712;28;20134;-53
2022/05/25 01:38:22;;;;;;;13.05;11.75;;;9.20;99.90;;;;;;5053416;28;20105;-53
2022/05/25 01:41:04;;;;;;;13.70;12.43;;;9.20;99.90;;;;;;5045510;28;20053;-51
2022/05/25 01:43:37;;;;;;;13.93;12.52;;;9.20;99.90;;;;;;5051627;28;20053;-49
2022/05/25 01:46:09;;;;;;;13.95;12.70;;;9.20;99.90;;;;;;5047349;28;20057;-54
2022/05/25 01:48:39;;;;;;;14.65;13.15;;;9.20;99.90;;;;;;5056312;28;20045;-54
2022/05/25 01:51:16;;;;;;;15.07;13.63;;;9.20;99.90;;;;;;5073698;28;20075;-52
2022/05/25 01:53:46;;;;;;;14.68;13.27;;;9.20;99.90;;;;;;5053936;28;20048;-52
2022/05/25 01:56:16;;;;;;;14.98;13.32;;;9.20;99.90;;;;;;5075314;28;20053;-51
2022/05/25 01:58:46;;;;;;;16.55;14.20;;;9.20;99.90;;;;;;5054780;28;20519;-51
2022/05/25 02:01:12;;;;;;;16.05;14.55;;;9.20;99.90;;;;;;5054925;28;20688;-54
2022/05/25 02:06:54;;;;;;;15.48;13.98;;;9.20;99.90;;;;;;5045841;28;20099;-50
2022/05/25 02:10:02;;;;;;;15.27;13.88;;;9.20;99.90;;;;;;5049451;28;20091;-46
2022/05/25 02:12:46;;;;;;;14.98;13.40;;;9.20;99.90;;;;;;5083342;28;20135;-54
2022/05/25 02:15:42;;;;;;;15.10;13.65;;;9.20;99.90;;;;;;5069753;28;20733;-51
2022/05/25 02:18:17;;;;;;;17.58;15.77;;;9.20;99.90;;;;;;5044921;28;20063;-52
2022/05/25 02:21:08;;;;;;;17.15;15.48;;;9.20;99.90;;;;;;5068966;28;20045;-52
2022/05/25 02:24:04;;;;;;;16.65;14.95;;;9.20;99.90;;;;;;5063353;28;20044;-50
2022/05/25 02:26:37;;;;;;;17.00;15.23;;;9.20;99.90;;;;;;5077856;28;20036;-51
2022/05/25 02:29:21;;;;;;;17.52;15.77;;;9.20;99.90;;;;;;5062618;28;20052;-51
2022/05/25 02:31:53;;;;;;;18.63;16.83;;;9.20;99.90;;;;;;5083030;28;20120;-51
2022/05/25 02:34:21;;;;;;;;;;;9.10;99.90;;;;;;5047272;28;20048;-48
2022/05/25 02:36:49;;;;;;;17.58;15.82;;;9.10;99.90;;;;;;5062196;28;19926;-52
2022/05/25 02:39:15;;;;;;;18.48;16.58;;;9.10;99.90;;;;;;5080987;28;20849;-50
2022/05/25 02:41:50;;;;;;;19.08;17.17;;;9.10;99.90;;;;;;5058828;28;20044;-52
2022/05/25 02:44:17;;;;;;;21.10;18.45;;;9.10;99.90;;;;;;5049148;28;20063;-54
2022/05/25 02:46:43;;;;;;;21.55;17.73;;;9.10;99.90;;;;;;5046879;28;20117;-52
2022/05/25 02:49:10;;;;;;;19.17;17.08;;;9.10;99.90;;;;;;5047048;28;20093;-54
2022/05/25 02:51:36;;;;;;;19.80;17.80;;;9.10;99.90;;;;;;5051874;28;20044;-51
2022/05/25 02:54:03;;;;;;;20.10;18.00;;;9.10;99.90;;;;;;5066704;28;20513;-48
2022/05/25 02:56:29;;;;;;;20.23;18.23;;;9.10;99.90;;;;;;5048551;28;20156;-50
2022/05/25 02:58:55;;;;;;;20.52;18.55;;;9.10;99.90;;;;;;5066199;28;20052;-49
2022/05/25 03:01:21;;;;;;;19.52;17.55;;;9.10;99.90;;;;;;5060398;28;20054;-48
2022/05/25 03:03:47;;;;;;;18.88;16.98;;;9.10;99.90;;;;;;5084866;28;20451;-51
2022/05/25 03:06:14;;;;;;;20.70;17.85;;;9.10;99.90;;;;;;5048334;28;20870;-51
2022/05/25 03:08:41;;;;;;;20.50;18.15;;;9.00;99.90;;;;;;5052194;28;20115;-51
2022/05/25 03:11:08;;;;;;;20.98;18.73;;;9.00;99.90;;;;;;5061650;28;20052;-50
2022/05/25 03:13:35;;;;;;;22.48;18.92;;;9.00;99.90;;;;;;5065985;28;20117;-52
2022/05/25 03:16:04;;;;;;;21.48;19.27;;;9.00;99.90;;;;;;5080674;28;20545;-53
2022/05/25 03:18:30;;;;;;;21.40;19.38;;;9.00;99.90;;;;;;5082469;28;20054;-50
2022/05/25 03:20:56;;;;;;;21.83;19.67;;;9.00;99.90;;;;;;5068985;28;20039;-52
2022/05/25 03:23:22;;;;;;;22.42;20.10;;;9.00;99.90;;;;;;5034256;28;20485;-52
2022/05/25 03:25:49;;;;;;;21.63;19.42;;;9.00;99.90;;;;;;5063796;28;20062;-54
2022/05/25 03:28:15;;;;;;;22.35;20.02;;;9.00;99.90;;;;;;5048685;28;20060;-52
2022/05/25 03:30:44;;;;;;;23.38;20.80;;;9.00;99.90;;;;;;5064499;28;20076;-51
2022/05/25 03:33:10;;;;;;;23.27;20.98;;;9.00;99.90;;;;;;5058229;28;20075;-50
2022/05/25 03:35:37;;;;;;;22.50;20.23;;;9.00;99.90;;;;;;5070379;28;20056;-54
2022/05/25 03:38:04;;;;;;;22.30;19.95;;;9.00;99.90;;;;;;5067703;28;20056;-53
2022/05/25 03:40:30;;;;;;;22.98;20.55;;;9.00;99.90;;;;;;5071954;28;20437;-52
2022/05/25 03:42:57;;;;;;;23.85;21.35;;;8.90;99.90;;;;;;5080818;28;20432;-50
2022/05/25 03:45:24;;;;;;;25.35;20.50;;;8.90;99.90;;;;;;5076922;28;20055;-51
2022/05/25 03:47:50;;;;;;;23.77;21.27;;;9.00;99.90;;;;;;5067188;28;20052;-52
2022/05/25 03:50:18;;;;;;;24.77;22.08;;;9.00;99.90;;;;;;5052983;28;20054;-49
2022/05/25 03:52:45;;;;;;;24.08;21.27;;;9.00;99.90;;;;;;5076918;28;20051;-47
2022/05/25 03:55:11;;;;;;;23.90;21.60;;;9.00;99.90;;;;;;5061303;28;20044;-49
2022/05/25 03:57:37;;;;;;;25.15;22.45;;;9.00;99.90;;;;;;5025454;28;20052;-51
2022/05/25 04:00:05;;;;;;;24.67;22.13;;;9.10;99.90;;;;;;5067340;28;20048;-50
2022/05/25 04:02:31;;;;;;;24.48;21.85;;;9.10;99.90;;;;;;5068849;28;20083;-53
2022/05/25 04:05:10;;;;;;;24.65;22.08;;;9.10;99.90;;;;;;5061589;28;20063;-51
2022/05/25 04:07:46;;;;;;;23.20;20.73;;;9.10;99.90;;;;;;5068534;28;20036;-51
2022/05/25 04:10:19;;;;;;;24.48;21.77;;;9.20;99.90;;;;;;5069228;28;20036;-53
2022/05/25 04:12:46;;;;;;;24.70;21.38;;;9.20;99.90;;;;;;5068307;28;20101;-52
2022/05/25 04:15:15;;;;;;;26.55;22.88;;;9.20;99.90;;;;;;5084323;28;20058;-51
2022/05/25 04:17:41;;;;;;;25.05;22.50;;;9.20;99.90;;;;;;5034063;28;20040;-52
2022/05/25 04:20:09;;;;;;;26.80;24.10;;;9.30;99.90;;;;;;5062673;28;21120;-50
2022/05/25 04:22:36;;;;;;;25.10;22.50;;;9.30;99.90;;;;;;5072765;28;20051;-53
2022/05/25 04:25:07;;;;;;;29.20;23.05;;;9.30;99.90;;;;;;5062797;28;20059;-49
2022/05/25 04:27:34;;;;;;;25.92;23.25;;;9.40;99.90;;;;;;5079714;28;20048;-49
2022/05/25 04:30:01;;;;;;;25.17;22.50;;;9.40;99.90;;;;;;5080454;28;20055;-51
2022/05/25 04:32:27;;;;;;;24.98;22.45;;;9.50;99.90;;;;;;5062118;28;20052;-48
2022/05/25 04:34:53;;;;;;;24.33;21.73;;;9.50;99.90;;;;;;5046149;28;20052;-53
2022/05/25 04:40:05;;;;;;;26.02;22.73;;;9.70;99.90;;;;;;5063120;28;20056;-51
2022/05/25 04:42:31;;;;;;;26.98;22.08;;;9.80;99.90;;;;;;5059647;28;20059;-48
2022/05/25 04:45:00;;;;;;;26.25;22.38;;;9.90;99.90;;;;;;5087503;28;20134;-51
2022/05/25 04:47:28;;;;;;;27.15;22.83;;;9.90;99.90;;;;;;5064114;28;20137;-53
2022/05/25 04:49:54;;;;;;;23.88;21.38;;;10.00;99.90;;;;;;5054525;28;20097;-50
2022/05/25 04:52:20;;;;;;;24.77;22.17;;;10.10;99.90;;;;;;5072145;28;20048;-51
2022/05/25 04:54:47;;;;;;;26.48;23.00;;;10.20;99.90;;;;;;5071712;28;20048;-48
2022/05/25 04:57:19;;;;;;;23.70;21.30;;;10.30;99.90;;;;;;5033750;28;20054;-55
2022/05/25 04:59:50;;;;;;;27.88;23.02;;;10.40;99.90;;;;;;5075023;28;20050;-52
2022/05/25 05:02:16;;;;;;;24.30;21.85;;;10.50;99.90;;;;;;5061931;28;20182;-49
2022/05/25 05:04:43;;;;;;;21.88;19.77;;;10.70;99.90;;;;;;5032403;28;20052;-51
2022/05/25 05:07:11;;;;;;;21.40;18.58;;;11.10;99.90;;;;;;5054740;28;20112;-49
2022/05/25 05:09:39;;;;;;;19.88;17.77;;;11.50;99.90;;;;;;5047420;28;20056;-50
2022/05/25 05:12:05;;;;;;;18.83;16.83;;;11.90;99.90;;;;;;5048445;28;20056;-50
2022/05/25 05:14:32;;;;;;;16.88;14.93;;;12.10;99.90;;;;;;5073525;28;20040;-49
2022/05/25 05:17:00;;;;;;;15.32;13.82;;;12.40;99.90;;;;;;5038460;28;20151;-52
2022/05/25 05:19:38;;;;;;;16.55;14.88;;;12.40;99.90;;;;;;5058856;28;20051;-52
2022/05/25 05:22:11;;;;;;;29.40;26.30;;;12.40;99.90;;;;;;5043070;28;20040;-52
2022/05/25 05:24:37;;;;;;;20.20;18.10;;;12.80;99.90;;;;;;5073162;28;20591;-54
2022/05/25 05:27:04;;;;;;;29.35;26.20;;;13.00;99.90;;;;;;5084006;28;20088;-55
2022/05/25 05:29:30;;;;;;;16.65;13.90;;;13.30;99.90;;;;;;5058737;28;20052;-53
2022/05/25 05:31:57;;;;;;;28.63;25.83;;;13.50;99.90;;;;;;5049236;28;20051;-51
2022/05/25 05:34:27;;;;;;;58.40;52.20;;;13.70;99.90;;;;;;5084753;28;20052;-49
2022/05/25 05:37:12;;;;;;;14.70;13.23;;;13.80;99.90;;;;;;5079681;28;20067;-58
2022/05/25 05:39:41;;;;;;;32.55;29.17;;;14.10;99.90;;;;;;5082000;28;20082;-58
2022/05/25 05:42:10;;;;;;;13.43;11.73;;;14.10;99.90;;;;;;5072460;28;20048;-58
2022/05/25 05:44:41;;;;;;;15.10;12.85;;;14.20;99.90;;;;;;5083323;28;20080;-58
2022/05/25 05:47:12;;;;;;;16.05;12.98;;;14.10;99.90;;;;;;5086364;28;20044;-58
2022/05/25 05:49:39;;;;;;;14.02;12.52;;;14.30;99.90;;;;;;5068087;28;20078;-58
2022/05/25 05:52:06;;;;;;;205.02;184.18;;;14.20;99.90;;;;;;5067721;28;20062;-58
2022/05/25 05:54:33;;;;;;;21.15;18.85;;;14.50;99.90;;;;;;5068257;28;20036;-58
2022/05/25 05:56:59;;;;;;;16.73;13.80;;;14.70;99.90;;;;;;5086266;28;20847;-58
2022/05/25 05:59:25;;;;;;;27.73;23.98;;;14.90;99.90;;;;;;5086390;28;20052;-59
2022/05/25 06:01:53;;;;;;;20.10;17.67;;;15.00;99.90;;;;;;5072193;28;20035;-58
2022/05/25 06:04:19;;;;;;;15.82;14.05;;;15.00;99.90;;;;;;5088097;28;20589;-58
2022/05/25 06:06:45;;;;;;;14.48;11.90;;;15.20;99.90;;;;;;5033930;28;20040;-54
2022/05/25 06:09:11;;;;;;;13.80;12.32;;;15.10;99.90;;;;;;5058950;22;20072;-76
2022/05/25 06:11:41;;;;;;;13.63;12.23;;;15.30;99.90;;;;;;4992652;28;20076;-78
2022/05/25 06:14:08;;;;;;;14.05;12.68;;;15.30;99.90;;;;;;5008363;28;20045;-78
2022/05/25 06:19:25;;;;;;;13.82;12.02;;;15.40;99.90;;;;;;5023472;28;20194;-78
2022/05/25 06:22:13;;;;;;;12.93;11.65;;;15.50;99.90;;;;;;4991225;28;20044;-77
2022/05/25 06:24:46;;;;;;;13.18;11.77;;;15.50;99.90;;;;;;4992397;28;20628;-79
2022/05/25 06:27:14;;;;;;;14.15;12.75;;;16.00;99.90;;;;;;5023376;28;20090;-79
2022/05/25 06:29:43;;;;;;;15.02;11.93;;;16.00;99.90;;;;;;4992140;28;20044;-79
2022/05/25 06:32:11;;;;;;;13.77;11.68;;;15.80;99.90;;;;;;5009888;28;20274;-78
2022/05/25 06:34:39;;;;;;;13.93;11.30;;;15.80;99.90;;;;;;4992558;28;20045;-76
2022/05/25 06:37:07;;;;;;;13.63;11.60;;;15.80;99.90;;;;;;5021108;28;20059;-79
2022/05/25 06:39:37;;;;;;;50.42;45.03;;;15.90;99.90;;;;;;4976354;28;20041;-77
2022/05/25 06:42:04;;;;;;;81.15;31.67;;;15.90;99.90;;;;;;5007757;28;20265;-79
2022/05/25 06:44:31;;;;;;;25.50;20.48;;;16.00;99.90;;;;;;5007561;28;20045;-77
2022/05/25 06:47:01;;;;;;;15.07;12.85;;;16.30;99.90;;;;;;4988284;28;20041;-79
2022/05/25 06:49:30;;;;;;;16.63;12.52;;;16.20;99.90;;;;;;4991792;28;20037;-77
2022/05/25 06:51:56;;;;;;;16.60;11.10;;;16.20;99.90;;;;;;5024371;28;20138;-77
2022/05/25 06:54:22;;;;;;;14.30;10.90;;;16.10;99.90;;;;;;5024679;28;20033;-76
2022/05/25 06:56:51;;;;;;;13.68;12.10;;;16.20;99.90;;;;;;4991555;28;20041;-77
2022/05/25 06:59:17;;;;;;;12.77;10.68;;;16.20;99.90;;;;;;5038657;28;20465;-77
2022/05/25 07:01:45;;;;;;;14.27;11.05;;;16.70;99.90;;;;;;4990259;28;20613;-77
2022/05/25 07:04:11;;;;;;;14.63;11.40;;;17.10;99.90;;;;;;5006480;28;20481;-77
2022/05/25 07:06:38;;;;;;;12.07;9.65;;;17.30;99.90;;;;;;5007297;28;20051;-77
2022/05/25 07:09:06;;;;;;;159.88;28.45;;;17.30;99.90;;;;;;5037664;28;20139;-77
2022/05/25 07:11:33;;;;;;;11.45;9.27;;;17.00;99.90;;;;;;5007718;28;20052;-77
2022/05/25 07:14:00;;;;;;;11.40;9.20;;;16.90;99.90;;;;;;4990797;28;20514;-77
2022/05/25 07:16:26;;;;;;;12.57;8.40;;;17.30;99.90;;;;;;5006984;28;20037;-77
2022/05/25 07:18:52;;;;;;;9.85;8.32;;;17.10;99.90;;;;;;4987977;28;20502;-77
2022/05/25 07:21:21;;;;;;;8.35;7.13;;;17.40;99.90;;;;;;5005106;28;20087;-77
2022/05/25 07:23:50;;;;;;;9.80;7.15;;;17.40;99.90;;;;;;5018841;28;20052;-76
2022/05/25 07:26:17;;;;;;;10.27;8.32;;;17.50;99.90;;;;;;5023046;28;20099;-77
2022/05/25 07:28:43;;;;;;;15.00;9.10;;;17.50;99.90;;;;;;5004971;28;20442;-78
2022/05/25 07:31:38;;;;;;;25.60;19.05;;;17.80;99.90;;;;;;5021759;28;20048;-78
2022/05/25 07:34:10;;;;;;;33.08;23.25;;;17.70;99.90;;;;;;4981877;28;20053;-75
2022/05/25 07:36:38;;;;;;;10.85;8.80;;;18.00;99.90;;;;;;4996042;28;20041;-75
2022/05/25 07:39:11;;;;;;;11.65;8.65;;;18.30;99.90;;;;;;4988725;28;20051;-75
2022/05/25 07:41:45;;;;;;;10.05;7.47;;;18.20;99.90;;;;;;5007323;28;20037;-75
2022/05/25 07:44:16;;;;;;;9.05;6.50;;;18.10;99.90;;;;;;5023572;28;20502;-75
2022/05/25 07:46:42;;;;;;;10.05;6.03;;;18.10;99.90;;;;;;4990271;28;20069;-75
2022/05/25 07:49:08;;;;;;;8.55;4.80;;;18.20;99.90;;;;;;4988901;28;20064;-75
2022/05/25 07:51:34;;;;;;;8.07;6.00;;;18.20;99.90;;;;;;5039546;28;20495;-74
2022/05/25 07:54:02;;;;;;;11.20;8.18;;;18.50;99.90;;;;;;5039955;28;20375;-74
2022/05/25 07:56:32;;;;;;;6.70;4.95;;;18.60;99.90;;;;;;5007545;28;20072;-75
2022/05/25 07:59:10;;;;;;;6.82;4.72;;;18.50;99.90;;;;;;5005743;28;20068;-74
2022/05/25 08:07:22;;;;;;;11.73;7.47;;;18.20;99.90;;;;;;5021300;28;20045;-77
2022/05/25 08:09:51;;;;;;;6.05;4.30;;;17.90;99.90;;;;;;4972856;28;20075;-77
2022/05/25 08:12:18;;;;;;;5.97;4.70;;;18.00;99.90;;;;;;4990016;28;20125;-77
2022/05/25 08:14:44;;;;;;;6.78;5.30;;;18.20;99.90;;;;;;5005353;28;20045;-77
2022/05/25 08:17:11;;;;;;;8.85;4.78;;;18.40;99.90;;;;;;5001434;28;20048;-78
2022/05/25 08:19:38;;;;;;;8.75;4.95;;;18.90;99.90;;;;;;5007816;28;20532;-77
2022/05/25 08:22:06;;;;;;;6.95;5.35;;;18.80;99.90;;;;;;4974461;28;20498;-78
2022/05/25 08:24:33;;;;;;;6.50;5.30;;;19.10;99.90;;;;;;5038971;28;20573;-76
2022/05/25 08:26:59;;;;;;;8.63;5.13;;;19.50;99.90;;;;;;5003603;28;20071;-78
2022/05/25 08:29:25;;;;;;;7.38;4.88;;;19.70;99.90;;;;;;4969163;28;20036;-79
2022/05/25 08:31:55;;;;;;;6.00;4.68;;;19.70;99.90;;;;;;4985833;28;20103;-78
2022/05/25 08:34:26;;;;;;;7.45;4.30;;;19.70;99.90;;;;;;5005686;28;20084;-78
2022/05/25 08:36:54;;;;;;;6.72;3.95;;;20.10;99.90;;;;;;4973512;28;20052;-78
2022/05/25 08:39:21;;;;;;;5.68;3.95;;;20.10;99.90;;;;;;5005239;28;20061;-79
2022/05/25 08:41:51;;;;;;;7.65;4.10;;;20.40;99.90;;;;;;4973781;28;20094;-78
2022/05/25 08:44:19;;;;;;;7.53;4.43;;;20.00;99.90;;;;;;4988763;28;20579;-79
2022/05/25 08:46:45;;;;;;;7.78;4.40;;;19.70;99.90;;;;;;4976159;28;20048;-78
2022/05/25 08:49:14;;;;;;;8.55;3.78;;;19.70;99.90;;;;;;4993517;28;20052;-79
2022/05/25 08:51:55;;;;;;;4.10;3.08;;;19.60;99.90;;;;;;5019182;28;20083;-77
2022/05/25 08:54:24;;;;;;;10.93;4.78;;;19.60;99.90;;;;;;5021441;28;20045;-78
2022/05/25 08:57:16;;;;;;;16.88;12.07;;;19.30;99.90;;;;;;4977127;28;20041;-77
2022/05/25 09:00:00;;;;;;;9.50;6.65;;;19.30;99.90;;;;;;5025792;28;20055;-78
2022/05/25 09:02:45;;;;;;;5.97;3.97;;;19.30;99.90;;;;;;4977150;28;20136;-77
2022/05/25 09:05:20;;;;;;;6.85;4.55;;;19.20;99.90;;;;;;4991673;28;20475;-78
2022/05/25 09:08:05;;;;;;;7.78;5.55;;;19.00;99.90;;;;;;5007712;28;20059;-78
2022/05/25 09:10:44;;;;;;;6.82;4.35;;;19.00;99.90;;;;;;4993868;28;20139;-78
2022/05/25 09:13:18;;;;;;;7.22;3.67;;;19.10;99.90;;;;;;4976094;28;20589;-78
2022/05/25 09:18:37;;;;;;;4.03;2.83;;;19.10;99.90;;;;;;5009870;28;20167;-77
2022/05/25 09:21:07;;;;;;;5.00;3.25;;;19.20;99.90;;;;;;4977069;28;20044;-78
2022/05/25 09:23:35;;;;;;;6.47;3.90;;;19.10;99.90;;;;;;4987809;28;20045;-77
2022/05/25 09:26:01;;;;;;;3.75;2.90;;;18.90;99.90;;;;;;4960883;28;20143;-78
2022/05/25 09:28:36;;;;;;;18.33;14.60;;;18.80;99.90;;;;;;5003648;28;20103;-78
2022/05/25 09:31:03;;;;;;;14.68;10.90;;;18.90;99.90;;;;;;4991806;28;20672;-78
2022/05/25 09:33:38;;;;;;;15.70;12.70;;;19.00;99.90;;;;;;5022822;28;20143;-78
2022/05/25 09:36:25;;;;;;;10.75;8.38;;;19.00;99.90;;;;;;4991251;28;20335;-77
2022/05/25 09:39:14;;;;;;;8.25;5.97;;;18.90;99.90;;;;;;4992169;28;20048;-77
2022/05/25 09:41:44;;;;;;;5.32;3.50;;;18.90;99.90;;;;;;4988953;28;20049;-77
2022/05/25 09:44:18;;;;;;;8.95;4.50;;;19.80;99.90;;;;;;4976149;28;20061;-77
2022/05/25 09:46:56;;;;;;;5.55;3.75;;;19.50;99.90;;;;;;5005811;28;20465;-78
2022/05/25 09:49:47;;;;;;;6.70;3.70;;;19.70;99.90;;;;;;5002997;28;20220;-78
2022/05/25 09:52:37;;;;;;;6.78;3.80;;;19.80;99.90;;;;;;4975087;28;20495;-78
2022/05/25 09:55:14;;;;;;;8.50;4.75;;;19.90;99.90;;;;;;4975917;28;20606;-77
2022/05/25 09:58:02;;;;;;;6.75;3.33;;;19.70;99.90;;;;;;4991833;28;20143;-79
2022/05/25 10:00:35;;;;;;;7.47;4.57;;;19.20;99.90;;;;;;5006883;28;20141;-79
2022/05/25 10:03:13;;;;;;;5.28;3.78;;;19.10;99.90;;;;;;5024151;28;20041;-79
2022/05/25 10:05:53;;;;;;;6.85;3.97;;;19.00;99.90;;;;;;5009124;28;20040;-77
2022/05/25 10:08:36;;;;;;;5.28;4.18;;;19.00;99.90;;;;;;4997612;28;20045;-78
2022/05/25 10:11:30;;;;;;;5.40;3.78;;;19.20;99.90;;;;;;5022721;28;20094;-78
2022/05/25 10:14:13;;;;;;;5.30;3.40;;;19.10;99.90;;;;;;5005128;28;20635;-78
2022/05/25 10:16:40;;;;;;;4.97;3.33;;;19.30;99.90;;;;;;5005023;28;20084;-77
2022/05/25 10:19:19;;;;;;;5.00;3.60;;;19.30;99.90;;;;;;4993434;28;20053;-77
2022/05/25 10:21:55;;;;;;;7.45;4.03;;;19.40;99.90;;;;;;5043546;28;20043;-77
2022/05/25 10:24:34;;;;;;;6.63;3.92;;;19.40;99.90;;;;;;5021338;28;20130;-77
2022/05/25 10:27:03;;;;;;;19.73;17.20;;;19.20;99.90;;;;;;5023899;28;20564;-78
2022/05/25 10:38:40;;;;;;;8.15;5.45;;;18.40;99.90;;;;;;5001328;28;20072;-77
2022/05/25 10:44:21;;;;;;;5.63;3.50;;;19.20;99.90;;;;;;5040560;28;20047;-75
2022/05/25 10:46:57;;;;;;;4.53;2.45;;;19.20;99.90;;;;;;5039942;28;20052;-75
2022/05/25 10:49:32;;;;;;;6.15;2.22;;;19.60;99.90;;;;;;5021903;28;20414;-77
2022/05/25 10:52:08;;;;;;;56.33;50.60;;;19.80;99.90;;;;;;5024408;28;20052;-74
2022/05/25 10:54:45;;;;;;;12.85;9.88;;;20.00;99.90;;;;;;5003535;28;20685;-75
2022/05/25 10:57:48;;;;;;;4.63;2.40;;;20.20;99.90;;;;;;5022297;28;20348;-73
2022/05/25 11:00:20;;;;;;;5.47;2.38;;;20.10;96.90;;;;;;5021802;28;20072;-74
2022/05/25 11:02:52;;;;;;;;;;;20.50;99.70;;;;;;5005477;28;20059;-74
2022/05/25 11:05:37;;;;;;;7.25;2.05;;;20.40;92.00;;;;;;5006938;28;19920;-75
2022/05/25 11:08:25;;;;;;;4.20;1.73;;;20.60;99.30;;;;;;5006388;28;20103;-75
2022/05/25 11:11:03;;;;;;;3.50;1.90;;;20.50;93.00;;;;;;5003491;28;20048;-75
2022/05/25 11:13:41;;;;;;;6.50;2.65;;;20.60;97.90;;;;;;5023289;28;20124;-75
2022/05/25 11:16:16;;;;;;;4.82;2.20;;;20.70;98.90;;;;;;5023587;28;20079;-75
2022/05/25 11:19:13;;;;;;;4.82;2.45;;;20.80;99.30;;;;;;5021464;28;20081;-74
2022/05/25 11:21:54;;;;;;;3.97;2.70;;;20.70;98.30;;;;;;5007038;28;20037;-75
2022/05/25 11:24:29;;;;;;;5.20;2.72;;;20.60;94.20;;;;;;5006913;28;20049;-75
2022/05/25 11:27:28;;;;;;;5.22;3.80;;;20.70;99.40;;;;;;5039643;28;20060;-75
2022/05/25 11:30:05;;;;;;;6.88;3.13;;;20.60;95.70;;;;;;4950722;28;20495;-75
2022/05/25 11:32:48;;;;;;;6.25;2.92;;;20.40;99.40;;;;;;5006976;28;20079;-75
2022/05/25 11:35:33;;;;;;;5.28;2.50;;;19.70;98.30;;;;;;5006611;28;20048;-75
2022/05/25 11:38:19;;;;;;;5.20;2.80;;;19.40;99.10;;;;;;5023638;28;20052;-75
2022/05/25 11:41:29;;;;;;;6.82;3.42;;;19.50;99.90;;;;;;5000889;28;20052;-75
2022/05/25 11:44:10;;;;;;;6.07;3.35;;;18.90;99.90;;;;;;4942447;28;20438;-75
2022/05/25 11:46:48;;;;;;;8.13;3.30;;;18.80;99.90;;;;;;5022585;28;20049;-75
2022/05/25 11:49:56;;;;;;;6.10;3.25;;;18.80;99.90;;;;;;4989908;28;20082;-75
2022/05/25 11:52:48;;;;;;;7.82;4.10;;;18.60;99.90;;;;;;5002830;28;20595;-76
2022/05/25 11:55:41;;;;;;;7.72;4.60;;;18.40;99.90;;;;;;5003790;28;20494;-75
2022/05/25 11:58:23;;;;;;;6.65;4.00;;;18.20;99.90;;;;;;5005452;28;20060;-75
2022/05/25 12:00:49;;;;;;;8.05;5.78;;;18.00;99.90;;;;;;4989755;28;20203;-75
2022/05/25 12:03:21;;;;;;;9.73;7.78;;;17.80;99.90;;;;;;4990111;28;20044;-74
2022/05/25 12:06:12;;;;;;;9.85;8.02;;;16.90;99.90;;;;;;4988414;28;20039;-76
2022/05/25 12:09:14;;;;;;;10.63;9.18;;;16.40;99.90;;;;;;5022349;28;20063;-77
2022/05/25 12:11:40;;;;;;;11.85;10.30;;;16.20;99.90;;;;;;5003688;28;20041;-79
2022/05/25 12:14:45;;;;;;;14.90;10.02;;;16.10;99.90;;;;;;5002735;28;20083;-82
2022/05/25 12:17:49;;;;;;;10.23;9.02;;;16.50;99.90;;;;;;4973132;28;20136;-78
2022/05/25 12:20:28;;;;;;;21.33;19.05;;;17.30;99.90;;;;;;4991844;28;20040;-82
2022/05/25 12:22:59;;;;;;;13.52;11.18;;;18.10;99.90;;;;;;5027334;28;20044;-78
2022/05/25 12:25:26;;;;;;;13.15;11.70;;;18.70;99.90;;;;;;5007395;28;20052;-78
2022/05/25 12:27:55;;;;;;;11.90;10.30;;;18.80;99.90;;;;;;4979729;28;20114;-78
2022/05/25 12:30:30;;;;;;;9.07;7.28;;;19.10;99.90;;;;;;5026814;28;20045;-77
2022/05/25 12:33:00;;;;;;;12.05;7.75;;;19.10;99.90;;;;;;4994196;28;20076;-77
2022/05/25 12:35:30;;;;;;;11.20;7.00;;;19.00;99.90;;;;;;4992410;28;20170;-77
2022/05/25 12:37:56;;;;;;;8.27;5.20;;;19.20;99.90;;;;;;5009904;28;20045;-77
2022/05/25 12:40:25;;;;;;;9.60;4.75;;;19.10;99.90;;;;;;5010304;28;20495;-75
2022/05/25 12:42:51;;;;;;;7.28;3.55;;;18.60;99.90;;;;;;5007941;28;20053;-74
2022/05/25 12:48:31;;;;;;;9.02;5.68;;;18.00;99.90;;;;;;5026094;28;20123;-74
2022/05/25 12:51:11;;;;;;;7.80;4.57;;;17.60;99.90;;;;;;5010817;28;20057;-74
2022/05/25 12:53:41;;;;;;;8.50;4.07;;;17.60;99.90;;;;;;5025509;28;20044;-73
2022/05/25 12:56:19;;;;;;;9.15;3.50;;;17.50;99.90;;;;;;5025241;28;20056;-73
2022/05/25 12:58:51;;;;;;;5.93;2.90;;;17.40;99.90;;;;;;5042483;28;20044;-74
2022/05/25 13:01:26;;;;;;;;;;;17.30;99.90;;;;;;4994107;28;20135;-74
2022/05/25 13:03:56;;;;;;;7.82;2.17;;;17.40;99.90;;;;;;5025659;28;19924;-74
2022/05/25 13:06:35;;;;;;;6.15;1.98;;;17.70;99.90;;;;;;5007763;28;20668;-74
2022/05/25 13:09:08;;;;;;;6.65;1.90;;;18.20;99.90;;;;;;5025663;28;20065;-74
2022/05/25 13:11:40;;;;;;;6.80;1.85;;;18.90;99.90;;;;;;5026389;28;20095;-75
2022/05/25 13:14:29;;;;;;;10.85;4.07;;;19.10;99.90;;;;;;5024145;28;20052;-77
2022/05/25 13:17:03;;;;;;;6.80;2.20;;;19.70;99.90;;;;;;4991908;28;20045;-77
2022/05/25 13:19:47;;;;;;;7.75;3.97;;;20.00;99.90;;;;;;5023067;28;20059;-77
2022/05/25 13:22:21;;;;;;;12.27;7.00;;;19.70;99.90;;;;;;5006983;28;20049;-76
2022/05/25 13:24:56;;;;;;;7.63;2.42;;;19.60;99.90;;;;;;5033350;28;20041;-77
2022/05/25 13:27:22;;;;;;;5.28;1.42;;;19.60;99.90;;;;;;4992718;28;20805;-77
2022/05/25 13:30:03;;;;;;;3.17;1.02;;;19.90;99.90;;;;;;5021710;28;20049;-77
2022/05/25 13:32:57;;;;;;;4.43;1.35;;;20.00;99.90;;;;;;5006382;28;20132;-77
2022/05/25 13:35:42;;;;;;;6.78;1.40;;;20.20;99.90;;;;;;4972642;28;20052;-78
2022/05/25 13:38:40;;;;;;;6.22;1.35;;;21.40;99.90;;;;;;4992176;28;20045;-77
2022/05/25 13:41:17;;;;;;;4.03;1.10;;;21.10;98.40;;;;;;5006527;28;20502;-78